createdAt,value
2023-04-26T00:00:30.903Z,102039.97
2023-04-26T00:03:00.089Z,102042.19
2023-04-26T00:05:27.322Z,102043.56
2023-04-26T00:07:54.363Z,102038.53
2023-04-26T00:10:21.148Z,102034.34
2023-04-26T00:12:47.580Z,102037.97
2023-04-26T00:15:14.352Z,102035.47
2023-04-26T00:17:41.291Z,102043.47
2023-04-26T00:20:10.584Z,102040.94
2023-04-26T00:22:38.050Z,102047.19
2023-04-26T00:25:04.881Z,102036.94
2023-04-26T00:27:31.916Z,102030.94
2023-04-26T00:29:58.790Z,102033.66
2023-04-26T00:32:25.366Z,102032.91
2023-04-26T00:34:52.058Z,102035.69
2023-04-26T00:37:18.512Z,102023.66
2023-04-26T00:39:45.105Z,102032.50
2023-04-26T00:42:11.855Z,102030.03
2023-04-26T00:44:40.134Z,102028.44
2023-04-26T00:47:06.781Z,102026.00
2023-04-26T00:49:33.628Z,102031.34
2023-04-26T00:52:00.275Z,102022.00
2023-04-26T00:54:26.876Z,102021.28
2023-04-26T00:56:54.335Z,102022.44
2023-04-26T00:59:21.513Z,102023.59
2023-04-26T01:01:49.191Z,102019.50
2023-04-26T01:04:16.588Z,102031.06
2023-04-26T01:06:48.700Z,102020.91
2023-04-26T01:09:15.661Z,102029.78
2023-04-26T01:11:43.901Z,102027.44
2023-04-26T01:14:10.853Z,102024.16
2023-04-26T01:16:38.451Z,102030.38
2023-04-26T01:19:13.047Z,102030.50
2023-04-26T01:21:40.600Z,102040.13
2023-04-26T01:24:10.228Z,102039.19
2023-04-26T01:26:43.897Z,102044.38
2023-04-26T01:29:18.233Z,102045.28
2023-04-26T01:31:45.522Z,102036.75
2023-04-26T01:34:12.215Z,102041.19
2023-04-26T01:36:39.112Z,102042.16
2023-04-26T01:39:05.751Z,102044.81
2023-04-26T01:41:33.705Z,102045.78
2023-04-26T01:44:00.799Z,102052.91
2023-04-26T01:46:27.548Z,102046.91
2023-04-26T01:48:54.453Z,102040.09
2023-04-26T01:51:21.803Z,102041.88
2023-04-26T01:53:48.456Z,102035.06
2023-04-26T01:56:14.938Z,102028.09
2023-04-26T01:58:41.832Z,102035.00
2023-04-26T02:01:09.422Z,102028.94
2023-04-26T02:03:36.515Z,102024.66
2023-04-26T02:06:03.456Z,102024.66
2023-04-26T02:08:30.188Z,102032.47
2023-04-26T02:10:56.960Z,102035.06
2023-04-26T02:13:23.454Z,102040.31
2023-04-26T02:15:51.366Z,102032.56
2023-04-26T02:18:21.986Z,102024.91
2023-04-26T02:20:48.900Z,102030.13
2023-04-26T02:23:15.903Z,102036.25
2023-04-26T02:25:45.945Z,102034.53
2023-04-26T02:28:12.671Z,102032.03
2023-04-26T02:30:39.197Z,102033.06
2023-04-26T02:33:05.910Z,102037.47
2023-04-26T02:35:32.452Z,102033.19
2023-04-26T02:37:59.093Z,102034.97
2023-04-26T02:40:25.723Z,102041.16
2023-04-26T02:42:53.319Z,102036.97
2023-04-26T02:45:20.004Z,102038.78
2023-04-26T02:47:46.643Z,102034.50
2023-04-26T02:50:13.474Z,102031.03
2023-04-26T02:52:39.981Z,102032.88
2023-04-26T02:55:07.039Z,102034.72
2023-04-26T02:57:33.799Z,102036.56
2023-04-26T03:00:01.182Z,102031.44
2023-04-26T03:02:28.041Z,102035.00
2023-04-26T03:04:56.037Z,102025.53
2023-04-26T03:07:22.804Z,102026.41
2023-04-26T03:09:49.359Z,102027.25
2023-04-26T03:12:16.087Z,102029.81
2023-04-26T03:14:42.583Z,102024.63
2023-04-26T03:17:09.564Z,102023.94
2023-04-26T03:19:36.520Z,102027.34
2023-04-26T03:22:03.374Z,102025.50
2023-04-26T03:24:30.114Z,102027.22
2023-04-26T03:26:56.671Z,102024.63
2023-04-26T03:29:23.171Z,102022.13
2023-04-26T03:31:49.813Z,102024.84
2023-04-26T03:34:16.646Z,102024.13
2023-04-26T03:36:43.156Z,102026.00
2023-04-26T03:39:09.851Z,102020.84
2023-04-26T03:41:39.587Z,102013.97
2023-04-26T03:44:06.804Z,102011.44
2023-04-26T03:46:33.400Z,102012.38
2023-04-26T03:48:59.910Z,102021.97
2023-04-26T03:51:28.381Z,102019.28
2023-04-26T03:53:56.126Z,102016.53
2023-04-26T03:56:22.642Z,102014.81
2023-04-26T03:58:49.244Z,102017.47
2023-04-26T04:01:15.989Z,102019.31
2023-04-26T04:03:45.721Z,102019.28
2023-04-26T04:06:12.728Z,102014.91
2023-04-26T04:08:39.379Z,102014.84
2023-04-26T04:11:06.113Z,102014.00
2023-04-26T04:13:32.665Z,102016.50
2023-04-26T04:15:59.435Z,102017.25
2023-04-26T04:18:26.578Z,102019.75
2023-04-26T04:20:53.191Z,102014.56
2023-04-26T04:23:19.777Z,102012.88
2023-04-26T04:25:47.572Z,102018.03
2023-04-26T04:28:14.603Z,102011.91
2023-04-26T04:30:43.756Z,102012.69
2023-04-26T04:33:10.518Z,102012.66
2023-04-26T04:35:36.945Z,102010.91
2023-04-26T04:38:04.334Z,102014.22
2023-04-26T04:40:31.420Z,102014.91
2023-04-26T04:42:58.001Z,102010.44
2023-04-26T04:45:24.565Z,102024.13
2023-04-26T04:47:51.133Z,102014.47
2023-04-26T04:50:17.765Z,102017.00
2023-04-26T04:52:44.463Z,102019.41
2023-04-26T04:55:11.418Z,102023.63
2023-04-26T04:57:38.983Z,102019.19
2023-04-26T05:00:12.809Z,102022.44
2023-04-26T05:02:39.484Z,102023.94
2023-04-26T05:05:07.961Z,102021.13
2023-04-26T05:07:35.046Z,102027.13
2023-04-26T05:10:02.078Z,102031.31
2023-04-26T05:12:28.748Z,102031.88
2023-04-26T05:14:55.511Z,102034.03
2023-04-26T05:17:22.005Z,102034.31
2023-04-26T05:19:48.541Z,102040.75
2023-04-26T05:22:18.544Z,102042.66
2023-04-26T05:24:47.195Z,102045.47
2023-04-26T05:27:14.581Z,102043.59
2023-04-26T05:29:41.796Z,102040.03
2023-04-26T05:32:08.600Z,102046.94
2023-04-26T05:34:35.464Z,102044.97
2023-04-26T05:37:02.980Z,102039.88
2023-04-26T05:39:30.070Z,102048.03
2023-04-26T05:41:56.514Z,102041.25
2023-04-26T05:44:23.047Z,102049.50
2023-04-26T05:46:49.561Z,102045.66
2023-04-26T05:49:16.178Z,102057.09
2023-04-26T05:51:42.704Z,102040.53
2023-04-26T05:54:09.154Z,102045.22
2023-04-26T05:56:35.636Z,102041.66
2023-04-26T05:59:02.144Z,102040.69
2023-04-26T06:01:28.622Z,102041.88
2023-04-26T06:03:58.078Z,102043.97
2023-04-26T06:06:28.206Z,102044.88
2023-04-26T06:08:54.935Z,102041.81
2023-04-26T06:11:21.727Z,102047.88
2023-04-26T06:13:48.282Z,102047.63
2023-04-26T06:16:15.258Z,102036.19
2023-04-26T06:18:42.143Z,102034.88
2023-04-26T06:21:08.734Z,102039.13
2023-04-26T06:23:35.222Z,102035.75
2023-04-26T06:26:01.819Z,102040.78
2023-04-26T06:28:28.326Z,102046.53
2023-04-26T06:30:54.854Z,102046.47
2023-04-26T06:33:21.353Z,102061.25
2023-04-26T06:35:47.978Z,102052.56
2023-04-26T06:38:14.495Z,102059.78
2023-04-26T06:40:41.412Z,102063.00
2023-04-26T06:43:07.874Z,102069.75
2023-04-26T06:45:34.473Z,102062.72
2023-04-26T06:48:02.214Z,102065.94
2023-04-26T06:50:28.756Z,102077.44
2023-04-26T06:52:55.338Z,102078.94
2023-04-26T06:55:22.049Z,102079.81
2023-04-26T06:57:49.918Z,102083.00
2023-04-26T07:00:17.985Z,102079.25
2023-04-26T07:02:44.638Z,102073.03
2023-04-26T07:05:11.511Z,102080.19
2023-04-26T07:07:38.118Z,102075.47
2023-04-26T07:10:04.942Z,102078.19
2023-04-26T07:12:31.565Z,102086.16
2023-04-26T07:14:58.099Z,102081.31
2023-04-26T07:17:24.554Z,102074.22
2023-04-26T07:19:51.036Z,102070.78
2023-04-26T07:22:17.672Z,102066.50
2023-04-26T07:24:44.363Z,102065.16
2023-04-26T07:27:11.222Z,102063.34
2023-04-26T07:29:39.270Z,102057.38
2023-04-26T07:32:06.638Z,102055.13
2023-04-26T07:34:36.274Z,102054.69
2023-04-26T07:37:02.753Z,102054.97
2023-04-26T07:39:29.529Z,102062.97
2023-04-26T07:41:55.997Z,102071.56
2023-04-26T07:44:22.403Z,102066.28
2023-04-26T07:46:48.890Z,102067.00
2023-04-26T07:49:15.421Z,102069.34
2023-04-26T07:51:44.362Z,102073.09
2023-04-26T07:54:11.012Z,102068.78
2023-04-26T07:56:37.502Z,102068.63
2023-04-26T07:59:05.003Z,102079.66
2023-04-26T08:01:31.514Z,102089.66
2023-04-26T08:03:58.968Z,102090.97
2023-04-26T08:06:26.854Z,102095.66
2023-04-26T08:08:53.965Z,102085.50
2023-04-26T08:11:20.389Z,102081.91
2023-04-26T08:13:47.047Z,102079.81
2023-04-26T08:16:13.822Z,102076.03
2023-04-26T08:18:40.447Z,102073.41
2023-04-26T08:21:06.894Z,102079.72
2023-04-26T08:23:35.882Z,102077.28
2023-04-26T08:26:03.002Z,102080.53
2023-04-26T08:28:29.537Z,102082.75
2023-04-26T08:30:56.135Z,102088.22
2023-04-26T08:33:22.864Z,102087.38
2023-04-26T08:35:49.299Z,102082.66
2023-04-26T08:38:15.778Z,102078.44
2023-04-26T08:40:46.620Z,102079.28
2023-04-26T08:43:15.154Z,102082.50
2023-04-26T08:45:44.467Z,102078.84
2023-04-26T08:48:15.081Z,102074.97
2023-04-26T08:50:45.345Z,102079.53
2023-04-26T08:53:15.706Z,102083.31
2023-04-26T08:55:42.965Z,102092.25
2023-04-26T08:58:11.634Z,102081.97
2023-04-26T09:00:38.582Z,102091.50
2023-04-26T09:03:05.202Z,102084.91
2023-04-26T09:05:34.292Z,102083.22
2023-04-26T09:08:03.484Z,102081.31
2023-04-26T09:10:32.174Z,102083.22
2023-04-26T09:12:58.955Z,102083.69
2023-04-26T09:15:27.353Z,102075.09
2023-04-26T09:17:54.213Z,102076.81
2023-04-26T09:20:22.238Z,102074.66
2023-04-26T09:22:56.225Z,102081.03
2023-04-26T09:25:30.631Z,102077.00
2023-04-26T09:27:58.689Z,102088.00
2023-04-26T09:30:27.354Z,102078.13
2023-04-26T09:32:55.952Z,102085.91
2023-04-26T09:35:28.908Z,102085.78
2023-04-26T09:38:12.303Z,102084.09
2023-04-26T09:40:41.233Z,102087.56
2023-04-26T09:43:09.035Z,102088.13
2023-04-26T09:45:53.650Z,102087.47
2023-04-26T09:48:28.937Z,102090.66
2023-04-26T09:51:08.587Z,102081.81
2023-04-26T09:53:38.455Z,102083.09
2023-04-26T09:56:11.994Z,102082.78
2023-04-26T09:58:48.580Z,102088.69
2023-04-26T10:01:17.636Z,102080.88
2023-04-26T10:03:44.413Z,102081.50
2023-04-26T10:06:13.095Z,102074.84
2023-04-26T10:08:39.815Z,102077.88
2023-04-26T10:11:13.131Z,102078.06
2023-04-26T10:13:44.569Z,102079.09
2023-04-26T10:16:11.799Z,102069.91
2023-04-26T10:18:38.602Z,102072.09
2023-04-26T10:21:11.505Z,102068.59
2023-04-26T10:23:38.704Z,102070.31
2023-04-26T10:26:05.854Z,102072.47
2023-04-26T10:28:44.741Z,102075.28
2023-04-26T10:31:13.291Z,102076.53
2023-04-26T10:33:39.915Z,102071.28
2023-04-26T10:36:09.124Z,102068.53
2023-04-26T10:38:38.097Z,102073.03
2023-04-26T10:41:31.455Z,102076.19
2023-04-26T10:44:00.056Z,102074.53
2023-04-26T10:46:35.883Z,102065.19
2023-04-26T10:49:25.859Z,102065.91
2023-04-26T10:52:27.515Z,102073.09
2023-04-26T10:54:56.662Z,102075.75
2023-04-26T10:57:44.634Z,102072.53
2023-04-26T11:00:14.980Z,102069.22
2023-04-26T11:02:56.559Z,102065.00
2023-04-26T11:05:48.054Z,102073.66
2023-04-26T11:08:17.489Z,102075.84
2023-04-26T11:10:50.551Z,102070.44
2023-04-26T11:13:17.924Z,102066.25
2023-04-26T11:15:45.032Z,102064.03
2023-04-26T11:18:11.912Z,102058.28
2023-04-26T11:20:38.838Z,102050.34
2023-04-26T11:23:08.809Z,102048.03
2023-04-26T11:25:35.681Z,102052.78
2023-04-26T11:28:03.558Z,102048.34
2023-04-26T11:30:31.803Z,102052.13
2023-04-26T11:32:59.872Z,102052.44
2023-04-26T11:35:29.449Z,102053.69
2023-04-26T11:38:00.160Z,102045.59
2023-04-26T11:40:33.446Z,102047.13
2023-04-26T11:43:09.666Z,102052.25
2023-04-26T11:45:38.345Z,102053.72
2023-04-26T11:48:10.999Z,102051.44
2023-04-26T11:50:39.530Z,102059.97
2023-04-26T11:53:07.991Z,102047.13
2023-04-26T11:55:35.808Z,102050.38
2023-04-26T11:58:10.994Z,102055.41
2023-04-26T12:00:37.938Z,102056.69
2023-04-26T12:03:11.103Z,102053.88
2023-04-26T12:05:38.417Z,102046.78
2023-04-26T12:08:06.729Z,102049.81
2023-04-26T12:10:36.005Z,102044.91
2023-04-26T12:13:02.667Z,102050.09
2023-04-26T12:15:33.201Z,102059.56
2023-04-26T12:18:06.695Z,102052.69
2023-04-26T12:20:35.775Z,102055.81
2023-04-26T12:23:10.677Z,102041.28
2023-04-26T12:25:39.319Z,102057.31
2023-04-26T12:28:12.652Z,102053.13
2023-04-26T12:30:40.635Z,102059.06
2023-04-26T12:33:16.604Z,102055.13
2023-04-26T12:35:44.644Z,102060.53
2023-04-26T12:38:12.766Z,102063.97
2023-04-26T12:40:39.701Z,102058.47
2023-04-26T12:43:08.423Z,102056.25
2023-04-26T12:45:35.067Z,102063.31
2023-04-26T12:48:02.134Z,102067.66
2023-04-26T12:50:28.663Z,102058.91
2023-04-26T12:52:55.351Z,102060.72
2023-04-26T12:55:21.981Z,102053.84
2023-04-26T12:57:48.666Z,102061.34
2023-04-26T13:00:19.843Z,102060.09
2023-04-26T13:02:46.773Z,102047.53
2023-04-26T13:05:13.830Z,102051.75
2023-04-26T13:07:42.599Z,102055.81
2023-04-26T13:10:12.933Z,102054.72
2023-04-26T13:12:39.839Z,102056.28
2023-04-26T13:15:09.862Z,102056.75
2023-04-26T13:17:37.733Z,102059.31
2023-04-26T13:20:08.568Z,102056.31
2023-04-26T13:22:35.324Z,102057.91
2023-04-26T13:25:02.230Z,102056.31
2023-04-26T13:27:31.431Z,102055.06
2023-04-26T13:29:58.818Z,102059.69
2023-04-26T13:32:25.663Z,102051.63
2023-04-26T13:34:55.654Z,102063.09
2023-04-26T13:37:24.962Z,102064.22
2023-04-26T13:39:51.621Z,102060.91
2023-04-26T13:42:18.495Z,102071.41
2023-04-26T13:44:45.053Z,102065.69
2023-04-26T13:47:11.632Z,102064.16
2023-04-26T13:49:41.368Z,102071.84
2023-04-26T13:52:08.007Z,102069.47
2023-04-26T13:54:35.999Z,102072.16
2023-04-26T13:57:02.881Z,102063.63
2023-04-26T13:59:29.766Z,102069.25
2023-04-26T14:01:58.938Z,102075.41
2023-04-26T14:04:26.436Z,102066.03
2023-04-26T14:06:53.428Z,102066.22
2023-04-26T14:09:19.965Z,102066.63
2023-04-26T14:11:51.609Z,102059.34
2023-04-26T14:14:24.015Z,102064.59
2023-04-26T14:16:50.536Z,102058.78
2023-04-26T14:19:17.570Z,102059.41
2023-04-26T14:21:44.431Z,102054.28
2023-04-26T14:24:11.598Z,102058.78
2023-04-26T14:26:38.235Z,102048.41
2023-04-26T14:29:05.300Z,102058.06
2023-04-26T14:31:32.668Z,102051.50
2023-04-26T14:33:59.611Z,102054.72
2023-04-26T14:36:26.340Z,102055.06
2023-04-26T14:38:52.828Z,102055.66
2023-04-26T14:41:19.843Z,102053.03
2023-04-26T14:43:46.846Z,102050.94
2023-04-26T14:46:13.792Z,102055.00
2023-04-26T14:48:40.401Z,102045.72
2023-04-26T14:51:07.046Z,102057.19
2023-04-26T14:53:33.575Z,102051.25
2023-04-26T14:56:01.119Z,102050.41
2023-04-26T14:58:28.020Z,102050.81
2023-04-26T15:00:54.550Z,102046.94
2023-04-26T15:03:21.944Z,102046.94
2023-04-26T15:05:48.569Z,102044.00
2023-04-26T15:08:15.398Z,102046.03
2023-04-26T15:10:42.123Z,102036.97
2023-04-26T15:13:08.642Z,102043.06
2023-04-26T15:15:35.154Z,102034.19
2023-04-26T15:18:02.131Z,102039.88
2023-04-26T15:20:29.026Z,102047.50
2023-04-26T15:22:55.888Z,102044.31
2023-04-26T15:25:22.373Z,102045.72
2023-04-26T15:27:50.340Z,102039.03
2023-04-26T15:30:16.910Z,102042.25
2023-04-26T15:32:47.418Z,102046.84
2023-04-26T15:35:15.615Z,102044.22
2023-04-26T15:37:42.150Z,102045.38
2023-04-26T15:40:10.522Z,102040.84
2023-04-26T15:42:37.720Z,102049.50
2023-04-26T15:45:04.569Z,102042.31
2023-04-26T15:47:31.163Z,102036.53
2023-04-26T15:50:03.581Z,102045.72
2023-04-26T15:52:33.277Z,102044.28
2023-04-26T15:54:59.805Z,102039.78
2023-04-26T15:57:26.411Z,102046.75
2023-04-26T15:59:53.081Z,102037.03
2023-04-26T16:02:19.626Z,102040.31
2023-04-26T16:04:46.501Z,102039.84
2023-04-26T16:07:16.735Z,102046.56
2023-04-26T16:09:48.486Z,102045.41
2023-04-26T16:12:15.021Z,102044.28
2023-04-26T16:14:41.759Z,102053.53
2023-04-26T16:17:08.259Z,102049.56
2023-04-26T16:19:34.861Z,102052.09
2023-04-26T16:22:04.328Z,102050.69
2023-04-26T16:24:31.222Z,102044.44
2023-04-26T16:26:57.887Z,102042.34
2023-04-26T16:29:25.230Z,102048.38
2023-04-26T16:31:52.608Z,102049.22
2023-04-26T16:34:19.991Z,102053.94
2023-04-26T16:36:46.812Z,102047.44
2023-04-26T16:39:15.599Z,102048.38
2023-04-26T16:41:42.493Z,102044.47
2023-04-26T16:44:09.708Z,102043.44
2023-04-26T16:46:36.405Z,102051.78
2023-04-26T16:49:09.258Z,102045.66
2023-04-26T16:51:37.178Z,102050.09
2023-04-26T16:54:04.228Z,102044.06
2023-04-26T16:56:30.815Z,102049.25
2023-04-26T16:58:57.533Z,102056.41
2023-04-26T17:01:24.153Z,102050.47
2023-04-26T17:03:52.023Z,102053.78
2023-04-26T17:06:18.945Z,102039.22
2023-04-26T17:08:48.858Z,102047.50
2023-04-26T17:11:18.491Z,102049.63
2023-04-26T17:13:45.081Z,102053.44
2023-04-26T17:16:12.127Z,102050.13
2023-04-26T17:18:38.651Z,102058.91
2023-04-26T17:21:05.859Z,102065.69
2023-04-26T17:23:33.594Z,102061.44
2023-04-26T17:26:01.507Z,102059.41
2023-04-26T17:28:28.456Z,102059.72
2023-04-26T17:30:54.978Z,102058.50
2023-04-26T17:33:21.583Z,102056.47
2023-04-26T17:35:48.127Z,102064.69
2023-04-26T17:38:14.806Z,102068.63
2023-04-26T17:40:41.390Z,102070.00
2023-04-26T17:43:09.279Z,102073.19
2023-04-26T17:45:35.986Z,102073.19
2023-04-26T17:48:02.660Z,102072.56
2023-04-26T17:50:30.274Z,102075.66
2023-04-26T17:52:56.857Z,102085.09
2023-04-26T17:55:25.252Z,102078.69
2023-04-26T17:57:52.029Z,102076.63
2023-04-26T18:00:20.213Z,102086.59
2023-04-26T18:02:47.387Z,102082.44
2023-04-26T18:05:14.335Z,102087.50
2023-04-26T18:07:40.821Z,102085.25
2023-04-26T18:10:08.268Z,102086.63
2023-04-26T18:12:35.414Z,102087.97
2023-04-26T18:15:04.567Z,102084.06
2023-04-26T18:17:31.136Z,102099.59
2023-04-26T18:19:58.040Z,102096.63
2023-04-26T18:22:24.661Z,102091.91
2023-04-26T18:24:51.204Z,102096.66
2023-04-26T18:27:18.218Z,102097.81
2023-04-26T18:29:44.753Z,102103.34
2023-04-26T18:32:11.240Z,102099.16
2023-04-26T18:34:39.046Z,102109.97
2023-04-26T18:37:06.264Z,102102.50
2023-04-26T18:39:32.738Z,102109.47
2023-04-26T18:41:59.185Z,102104.47
2023-04-26T18:44:25.741Z,102111.97
2023-04-26T18:46:55.685Z,102107.78
2023-04-26T18:49:23.275Z,102109.75
2023-04-26T18:51:49.796Z,102111.03
2023-04-26T18:54:16.754Z,102109.50
2023-04-26T18:56:44.105Z,102113.38
2023-04-26T18:59:12.048Z,102107.44
2023-04-26T19:01:38.786Z,102109.41
2023-04-26T19:04:05.999Z,102110.34
2023-04-26T19:06:33.070Z,102118.56
2023-04-26T19:08:59.884Z,102113.53
2023-04-26T19:11:26.888Z,102112.09
2023-04-26T19:13:53.597Z,102112.34
2023-04-26T19:16:22.524Z,102115.06
2023-04-26T19:18:49.182Z,102112.50
2023-04-26T19:21:16.487Z,102117.06
2023-04-26T19:23:44.745Z,102123.38
2023-04-26T19:26:12.820Z,102124.53
2023-04-26T19:28:41.007Z,102133.44
2023-04-26T19:31:10.235Z,102130.25
2023-04-26T19:33:37.057Z,102134.06
2023-04-26T19:36:03.931Z,102139.56
2023-04-26T19:38:30.476Z,102127.69
2023-04-26T19:40:56.871Z,102135.88
2023-04-26T19:43:24.606Z,102140.66
2023-04-26T19:45:51.350Z,102139.28
2023-04-26T19:48:17.898Z,102139.72
2023-04-26T19:50:45.174Z,102141.00
2023-04-26T19:53:13.497Z,102143.16
2023-04-26T19:55:40.945Z,102144.56
2023-04-26T19:58:07.988Z,102137.06
2023-04-26T20:00:39.219Z,102142.63
2023-04-26T20:03:06.704Z,102144.75
2023-04-26T20:05:34.830Z,102149.66
2023-04-26T20:08:01.952Z,102148.50
2023-04-26T20:10:34.038Z,102151.38
2023-04-26T20:13:00.951Z,102150.91
2023-04-26T20:15:27.995Z,102159.13
2023-04-26T20:17:54.998Z,102160.25
2023-04-26T20:20:21.771Z,102152.88
2023-04-26T20:22:48.224Z,102158.56
2023-04-26T20:25:14.738Z,102165.97
2023-04-26T20:27:41.362Z,102159.31
2023-04-26T20:30:08.134Z,102159.56
2023-04-26T20:32:34.660Z,102160.47
2023-04-26T20:35:01.264Z,102162.44
2023-04-26T20:37:27.876Z,102164.44
2023-04-26T20:39:54.477Z,102156.91
2023-04-26T20:42:21.993Z,102162.41
2023-04-26T20:44:48.690Z,102162.84
2023-04-26T20:47:15.203Z,102165.09
2023-04-26T20:49:41.892Z,102164.63
2023-04-26T20:52:08.410Z,102174.50
2023-04-26T20:54:34.967Z,102170.50
2023-04-26T20:57:04.353Z,102172.56
2023-04-26T20:59:30.941Z,102164.03
2023-04-26T21:01:57.587Z,102170.19
2023-04-26T21:04:24.681Z,102163.25
2023-04-26T21:06:51.474Z,102165.88
2023-04-26T21:09:18.200Z,102163.41
2023-04-26T21:11:44.737Z,102161.63
2023-04-26T21:14:11.487Z,102165.22
2023-04-26T21:16:37.953Z,102161.81
2023-04-26T21:19:05.363Z,102162.16
2023-04-26T21:21:32.655Z,102168.25
2023-04-26T21:23:59.401Z,102165.41
2023-04-26T21:26:26.964Z,102164.88
2023-04-26T21:28:53.721Z,102173.97
2023-04-26T21:31:20.194Z,102170.69
2023-04-26T21:33:46.705Z,102169.16
2023-04-26T21:36:13.280Z,102169.41
2023-04-26T21:38:39.972Z,102173.03
2023-04-26T21:41:06.413Z,102167.09
2023-04-26T21:43:34.682Z,102165.44
2023-04-26T21:46:01.172Z,102168.22
2023-04-26T21:48:27.894Z,102178.84
2023-04-26T21:50:55.620Z,102179.84
2023-04-26T21:53:22.131Z,102175.69
2023-04-26T21:55:52.951Z,102173.28
2023-04-26T21:58:20.707Z,102169.22
2023-04-26T22:00:47.512Z,102162.38
2023-04-26T22:03:14.137Z,102176.50
2023-04-26T22:06:06.560Z,102174.19
2023-04-26T22:08:33.360Z,102175.25
2023-04-26T22:11:00.568Z,102174.56
2023-04-26T22:13:27.467Z,102170.47
2023-04-26T22:15:54.432Z,102168.88
2023-04-26T22:18:21.270Z,102175.97
2023-04-26T22:20:47.730Z,102181.31
2023-04-26T22:23:14.523Z,102184.03
2023-04-26T22:25:40.928Z,102191.16
2023-04-26T22:28:07.720Z,102187.84
2023-04-26T22:30:34.208Z,102188.94
2023-04-26T22:33:00.939Z,102180.38
2023-04-26T22:35:27.785Z,102183.31
2023-04-26T22:37:55.459Z,102180.91
2023-04-26T22:40:21.985Z,102185.41
2023-04-26T22:42:48.562Z,102181.13
2023-04-26T22:45:15.177Z,102186.56
2023-04-26T22:47:42.142Z,102189.22
2023-04-26T22:50:08.997Z,102188.47
2023-04-26T22:52:35.856Z,102195.59
2023-04-26T22:55:02.789Z,102192.19
2023-04-26T22:57:30.077Z,102199.22
2023-04-26T22:59:56.988Z,102198.50
2023-04-26T23:02:23.910Z,102195.16
2023-04-26T23:04:50.798Z,102197.88
2023-04-26T23:07:17.275Z,102202.19
2023-04-26T23:09:43.854Z,102201.53
2023-04-26T23:12:20.086Z,102203.31
2023-04-26T23:14:47.941Z,102207.75
2023-04-26T23:17:14.665Z,102211.31
2023-04-26T23:19:41.219Z,102207.03
2023-04-26T23:22:07.888Z,102208.09
2023-04-26T23:24:34.452Z,102214.34
2023-04-26T23:27:01.267Z,102211.75
2023-04-26T23:29:27.779Z,102221.34
2023-04-26T23:31:54.486Z,102216.09
2023-04-26T23:34:21.122Z,102216.38
2023-04-26T23:36:47.645Z,102216.41
2023-04-26T23:39:14.386Z,102218.25
2023-04-26T23:41:41.194Z,102216.63
2023-04-26T23:44:07.974Z,102213.13
2023-04-26T23:46:34.445Z,102217.56
2023-04-26T23:49:01.186Z,102228.97
2023-04-26T23:51:27.789Z,102223.09
2023-04-26T23:53:57.480Z,102229.44
2023-04-26T23:56:27.019Z,102224.34
2023-04-26T23:58:53.542Z,102234.84
